createdAt,value
2023-01-30T00:02:21.524Z,11.55
2023-01-30T00:07:21.161Z,13.07
2023-01-30T00:12:19.367Z,10.43
2023-01-30T00:17:17.532Z,13.20
2023-01-30T00:22:15.667Z,12.90
2023-01-30T00:27:15.236Z,14.32
2023-01-30T00:32:13.414Z,13.40
2023-01-30T00:37:11.918Z,11.55
2023-01-30T00:42:27.970Z,10.02
2023-01-30T00:47:27.508Z,10.48
2023-01-30T00:52:25.682Z,12.05
2023-01-30T00:57:23.828Z,14.18
2023-01-30T01:02:22.073Z,10.63
2023-01-30T01:07:22.139Z,10.35
2023-01-30T01:12:20.317Z,12.68
2023-01-30T01:17:18.497Z,13.32
2023-01-30T01:22:19.201Z,11.40
2023-01-30T01:27:19.544Z,12.32
2023-01-30T01:32:17.883Z,14.90
2023-01-30T01:37:16.137Z,12.95
2023-01-30T01:42:14.374Z,29.85
2023-01-30T01:47:13.922Z,18.58
2023-01-30T01:52:14.300Z,19.75
2023-01-30T01:57:14.165Z,21.13
2023-01-30T02:02:13.688Z,19.77
2023-01-30T02:07:13.236Z,18.38
2023-01-30T02:12:12.465Z,23.65
2023-01-30T02:17:10.712Z,36.28
2023-01-30T02:22:25.658Z,23.75
2023-01-30T02:27:30.095Z,21.30
2023-01-30T02:32:34.582Z,21.75
2023-01-30T02:37:43.745Z,23.47
2023-01-30T02:42:49.992Z,24.00
2023-01-30T02:47:53.225Z,21.52
2023-01-30T02:52:51.408Z,20.38
2023-01-30T02:57:49.550Z,18.98
2023-01-30T03:03:07.296Z,21.35
2023-01-30T03:08:11.071Z,20.55
2023-01-30T03:13:12.761Z,20.38
2023-01-30T03:18:12.803Z,19.02
2023-01-30T03:23:10.965Z,18.58
2023-01-30T03:28:09.570Z,20.33
2023-01-30T03:33:07.711Z,18.52
2023-01-30T03:38:09.289Z,21.08
2023-01-30T03:43:07.860Z,21.38
2023-01-30T03:48:07.840Z,28.48
2023-01-30T03:53:06.152Z,23.13
2023-01-30T03:58:05.696Z,24.00
2023-01-30T04:03:05.307Z,21.13
2023-01-30T04:08:03.828Z,22.38
2023-01-30T04:13:01.956Z,23.27
2023-01-30T04:18:03.368Z,30.88
2023-01-30T04:23:25.230Z,24.98
2023-01-30T04:28:24.331Z,31.48
2023-01-30T04:33:25.532Z,23.83
2023-01-30T04:38:24.594Z,24.67
2023-01-30T04:43:24.217Z,24.55
2023-01-30T04:48:42.992Z,21.17
2023-01-30T04:53:41.335Z,18.60
2023-01-30T04:58:40.093Z,20.85
2023-01-30T05:03:39.432Z,25.80
2023-01-30T05:08:38.976Z,19.48
2023-01-30T05:13:37.811Z,20.80
2023-01-30T05:18:36.029Z,20.60
2023-01-30T05:23:34.175Z,19.67
2023-01-30T05:28:33.993Z,17.92
2023-01-30T05:33:32.187Z,21.73
2023-01-30T05:38:30.533Z,16.17
2023-01-30T05:43:28.845Z,16.15
2023-01-30T05:48:28.842Z,23.42
2023-01-30T05:53:29.155Z,19.63
2023-01-30T05:58:27.709Z,17.05
2023-01-30T06:03:25.854Z,24.52
2023-01-30T06:08:25.506Z,22.60
2023-01-30T06:13:25.086Z,37.42
2023-01-30T06:18:23.225Z,48.08
2023-01-30T06:23:21.777Z,25.77
2023-01-30T06:28:21.478Z,21.98
2023-01-30T06:33:19.750Z,23.10
2023-01-30T06:38:17.989Z,23.42
2023-01-30T06:43:16.472Z,26.83
2023-01-30T06:48:16.126Z,18.88
2023-01-30T06:53:14.331Z,26.42
2023-01-30T06:58:13.492Z,21.00
2023-01-30T07:03:12.438Z,24.38
2023-01-30T07:08:11.975Z,22.90
2023-01-30T07:13:10.341Z,23.55
2023-01-30T07:18:08.548Z,22.50
2023-01-30T07:23:06.733Z,33.88
2023-01-30T07:28:06.593Z,24.98
2023-01-30T07:33:05.883Z,40.90
2023-01-30T07:38:04.334Z,24.10
2023-01-30T08:30:12.025Z,34.95
2023-01-30T08:35:11.186Z,38.78
2023-01-30T08:40:10.418Z,27.73
2023-01-30T08:45:09.012Z,28.77
2023-01-30T08:50:09.114Z,29.38
2023-01-30T08:55:07.528Z,34.15
2023-01-30T09:00:06.400Z,25.95
2023-01-30T09:05:05.134Z,40.08
2023-01-30T09:10:04.891Z,57.97
2023-01-30T09:15:03.467Z,34.13
2023-01-30T09:20:01.684Z,27.52
2023-01-30T09:25:00.192Z,28.08
2023-01-30T09:29:59.740Z,36.00
2023-01-30T09:34:57.977Z,26.75
2023-01-30T09:39:56.164Z,30.17
2023-01-30T09:45:13.791Z,35.85
2023-01-30T09:50:21.558Z,40.60
2023-01-30T09:55:21.712Z,44.70
2023-01-30T10:00:25.683Z,29.10
2023-01-30T10:05:24.676Z,30.83
2023-01-30T10:10:30.725Z,60.47
2023-01-30T10:15:37.734Z,29.08
2023-01-30T10:20:42.085Z,21.73
2023-01-30T10:25:43.801Z,19.83
2023-01-30T10:30:45.295Z,20.77
2023-01-30T10:35:44.073Z,21.30
2023-01-30T10:40:44.182Z,22.45
2023-01-30T10:45:48.067Z,50.72
2023-01-30T10:50:50.767Z,25.08
2023-01-30T10:55:49.594Z,20.95
2023-01-30T11:00:52.705Z,17.20
2023-01-30T11:05:57.584Z,17.60
2023-01-30T11:10:56.272Z,27.88
2023-01-30T11:15:57.779Z,15.15
2023-01-30T11:21:06.128Z,18.30
2023-01-30T11:26:11.678Z,19.48
2023-01-30T11:31:19.792Z,19.88
2023-01-30T11:36:26.132Z,22.55
2023-01-30T11:41:24.406Z,25.60
2023-01-30T11:46:24.361Z,27.55
2023-01-30T11:51:23.870Z,36.40
2023-01-30T11:56:29.576Z,29.25
2023-01-30T12:01:30.957Z,30.45
2023-01-30T12:06:34.778Z,24.30
2023-01-30T12:11:44.913Z,22.55
2023-01-30T12:16:49.622Z,20.30
2023-01-30T12:21:51.074Z,14.57
2023-01-30T12:26:55.409Z,19.30
2023-01-30T12:32:00.498Z,25.90
2023-01-30T12:42:04.505Z,21.73
2023-01-30T12:47:22.178Z,24.37
2023-01-30T12:52:27.505Z,27.92
2023-01-30T12:57:29.163Z,34.00
2023-01-30T13:02:37.629Z,33.17
2023-01-30T13:07:42.510Z,34.17
2023-01-30T13:12:43.486Z,25.63
2023-01-30T13:17:46.849Z,51.20
2023-01-30T13:22:48.369Z,27.00
2023-01-30T13:27:55.214Z,33.13
2023-01-30T13:32:57.966Z,25.92
2023-01-30T13:37:58.091Z,21.90
2023-01-30T13:42:57.815Z,29.55
2023-01-30T13:48:04.760Z,28.20
2023-01-30T13:53:06.596Z,39.47
2023-01-30T13:58:10.720Z,53.60
2023-01-30T14:03:31.495Z,31.00
2023-01-30T14:08:30.409Z,36.80
2023-01-30T14:13:30.644Z,46.22
2023-01-30T14:18:34.008Z,57.78
2023-01-30T14:23:36.483Z,56.15
2023-01-30T14:28:49.717Z,50.67
2023-01-30T14:33:52.526Z,67.32
2023-01-30T14:38:58.012Z,78.32
2023-01-30T14:43:56.232Z,61.15
2023-01-30T14:49:01.082Z,69.95
2023-01-30T14:54:00.818Z,66.32
2023-01-30T14:59:02.811Z,76.45
2023-01-30T15:04:06.905Z,79.38
2023-01-30T15:09:09.368Z,65.63
2023-01-30T15:14:11.888Z,60.08
2023-01-30T15:19:19.022Z,122.45
2023-01-30T15:24:30.399Z,72.72
2023-01-30T15:29:40.844Z,88.68
2023-01-30T15:34:49.543Z,99.78
2023-01-30T15:39:47.780Z,104.00
2023-01-30T15:44:54.915Z,334.20
2023-01-30T15:49:58.212Z,366.55
2023-01-30T15:55:00.651Z,470.65
2023-01-30T15:59:59.251Z,459.23
2023-01-30T16:05:15.194Z,422.48
2023-01-30T16:10:14.655Z,478.75
2023-01-30T16:15:19.849Z,218.38
2023-01-30T16:20:20.014Z,224.32
2023-01-30T16:25:21.377Z,153.98
2023-01-30T16:30:23.614Z,72.55
2023-01-30T16:35:37.589Z,223.43
2023-01-30T16:40:44.983Z,170.60
2023-01-30T16:45:55.253Z,140.80
2023-01-30T16:51:10.284Z,83.97
2023-01-30T16:56:10.881Z,58.03
2023-01-30T17:01:09.733Z,57.95
2023-01-30T17:06:15.106Z,45.67
2023-01-30T17:11:29.143Z,50.85
2023-01-30T17:16:28.793Z,64.80
2023-01-30T17:21:29.266Z,59.53
2023-01-30T17:26:27.673Z,47.35
2023-01-30T17:31:26.152Z,36.03
2023-01-30T17:36:26.656Z,70.00
2023-01-30T17:41:28.517Z,129.23
2023-01-30T17:46:32.460Z,95.47
2023-01-30T17:51:30.701Z,79.38
2023-01-30T17:56:32.335Z,57.58
2023-01-30T18:01:30.594Z,44.70
2023-01-30T18:06:29.939Z,36.85
2023-01-30T18:11:28.094Z,35.13
2023-01-30T18:16:30.988Z,33.28
2023-01-30T18:21:31.675Z,30.77
2023-01-30T18:26:30.907Z,30.70
2023-01-30T18:31:31.841Z,28.88
2023-01-30T18:36:30.126Z,38.67
2023-01-30T18:41:30.862Z,45.20
2023-01-30T18:46:29.408Z,35.30
2023-01-30T18:51:29.591Z,35.97
2023-01-30T18:56:29.531Z,28.73
2023-01-30T19:01:28.460Z,23.90
2023-01-30T19:06:27.038Z,22.60
2023-01-30T19:11:43.944Z,26.08
2023-01-30T19:16:42.362Z,29.08
2023-01-30T19:21:40.698Z,24.40
2023-01-30T19:26:40.519Z,30.08
2023-01-30T19:31:43.991Z,25.92
2023-01-30T19:36:42.616Z,29.35
2023-01-30T19:41:42.181Z,27.30
2023-01-30T19:46:40.469Z,35.00
2023-01-30T19:51:38.705Z,27.48
2023-01-30T19:56:39.273Z,24.42
2023-01-30T20:01:40.124Z,26.30
2023-01-30T20:06:39.057Z,20.50
2023-01-30T20:11:37.854Z,20.13
2023-01-30T20:16:36.410Z,24.20
2023-01-30T20:21:36.219Z,28.67
2023-01-30T20:26:35.912Z,27.05
2023-01-30T20:31:34.991Z,24.10
2023-01-30T20:36:33.253Z,25.17
2023-01-30T20:41:35.132Z,24.55
2023-01-30T20:46:41.415Z,22.55
2023-01-30T20:51:41.721Z,26.38
2023-01-30T20:56:43.859Z,23.85
2023-01-30T21:01:42.226Z,27.23
2023-01-30T21:06:43.567Z,27.70
2023-01-30T21:11:44.989Z,35.83
2023-01-30T21:16:43.219Z,25.83
2023-01-30T21:21:42.645Z,23.10
2023-01-30T21:26:44.642Z,23.17
2023-01-30T21:31:47.301Z,21.70
2023-01-30T21:37:05.920Z,21.15
2023-01-30T21:42:22.181Z,25.15
2023-01-30T21:47:21.754Z,24.45
2023-01-30T21:52:19.927Z,23.77
2023-01-30T21:57:18.112Z,23.92
2023-01-30T22:02:16.272Z,20.52
2023-01-30T22:07:15.818Z,20.92
2023-01-30T22:12:13.982Z,22.58
2023-01-30T22:17:12.237Z,22.48
2023-01-30T22:22:10.421Z,21.42
2023-01-30T22:27:09.989Z,19.80
2023-01-30T22:32:08.316Z,19.40
2023-01-30T22:37:06.457Z,22.45
2023-01-30T22:42:04.721Z,21.98
2023-01-30T22:47:04.434Z,23.40
2023-01-30T22:52:02.823Z,25.10
2023-01-30T22:57:00.931Z,19.77
2023-01-30T23:01:59.167Z,19.88
2023-01-30T23:06:59.655Z,20.67
2023-01-30T23:12:15.715Z,20.00
2023-01-30T23:17:31.433Z,19.15
2023-01-30T23:22:31.492Z,19.95
2023-01-30T23:27:30.444Z,24.13
2023-01-30T23:32:28.578Z,21.48
2023-01-30T23:37:46.890Z,19.92
2023-01-30T23:42:46.434Z,20.55
2023-01-30T23:47:44.726Z,20.05
2023-01-30T23:52:44.612Z,24.55
2023-01-30T23:57:43.143Z,24.17
